sensor_id;sensor_type;location;lat;lon;timestamp;pressure;altitude;pressure_sealevel;temperature;humidity
31005;BME280;17676;52.254;4.490;2023-03-23T00:01:07;100020.38;;;12.61;100.00
31005;BME280;17676;52.254;4.490;2023-03-23T00:03:35;100024.84;;;12.67;100.00
31005;BME280;17676;52.254;4.490;2023-03-23T00:06:01;100024.84;;;12.67;100.00
31005;BME280;17676;52.254;4.490;2023-03-23T00:08:39;100007.97;;;12.65;100.00
31005;BME280;17676;52.254;4.490;2023-03-23T00:11:19;100019.75;;;12.71;100.00
31005;BME280;17676;52.254;4.490;2023-03-23T00:13:47;100012.91;;;12.68;100.00
31005;BME280;17676;52.254;4.490;2023-03-23T00:16:13;100005.34;;;12.70;100.00
31005;BME280;17676;52.254;4.490;2023-03-23T00:18:49;100004.31;;;12.71;100.00
31005;BME280;17676;52.254;4.490;2023-03-23T00:21:18;100003.78;;;12.74;100.00
31005;BME280;17676;52.254;4.490;2023-03-23T00:23:44;99990.59;;;12.66;100.00
31005;BME280;17676;52.254;4.490;2023-03-23T00:26:10;99984.69;;;12.69;100.00
31005;BME280;17676;52.254;4.490;2023-03-23T00:28:35;99981.75;;;12.71;100.00
31005;BME280;17676;52.254;4.490;2023-03-23T00:31:03;99979.59;;;12.73;100.00
31005;BME280;17676;52.254;4.490;2023-03-23T00:33:33;99982.22;;;12.68;100.00
31005;BME280;17676;52.254;4.490;2023-03-23T00:36:04;99973.00;;;12.69;100.00
31005;BME280;17676;52.254;4.490;2023-03-23T00:38:30;99975.47;;;12.70;100.00
31005;BME280;17676;52.254;4.490;2023-03-23T00:40:56;99968.72;;;12.73;100.00
31005;BME280;17676;52.254;4.490;2023-03-23T00:43:23;99966.28;;;12.71;100.00
31005;BME280;17676;52.254;4.490;2023-03-23T00:45:49;99966.28;;;12.71;100.00
31005;BME280;17676;52.254;4.490;2023-03-23T00:48:19;99970.88;;;12.71;100.00
31005;BME280;17676;52.254;4.490;2023-03-23T00:50:45;99954.50;;;12.66;100.00
31005;BME280;17676;52.254;4.490;2023-03-23T00:53:11;99964.63;;;12.70;100.00
31005;BME280;17676;52.254;4.490;2023-03-23T00:55:36;99961.41;;;12.73;100.00
31005;BME280;17676;52.254;4.490;2023-03-23T00:58:02;99957.53;;;12.69;100.00
31005;BME280;17676;52.254;4.490;2023-03-23T01:00:28;99957.06;;;12.72;100.00
31005;BME280;17676;52.254;4.490;2023-03-23T01:02:53;99959.78;;;12.72;100.00
31005;BME280;17676;52.254;4.490;2023-03-23T01:05:19;99960.59;;;12.73;100.00
31005;BME280;17676;52.254;4.490;2023-03-23T01:07:45;99969.47;;;12.68;100.00
31005;BME280;17676;52.254;4.490;2023-03-23T01:10:12;99952.59;;;12.66;100.00
31005;BME280;17676;52.254;4.490;2023-03-23T01:12:42;99951.28;;;12.69;100.00
31005;BME280;17676;52.254;4.490;2023-03-23T01:15:08;99952.13;;;12.69;100.00
31005;BME280;17676;52.254;4.490;2023-03-23T01:17:33;99927.44;;;12.71;100.00
31005;BME280;17676;52.254;4.490;2023-03-23T01:19:59;99932.56;;;12.67;100.00
31005;BME280;17676;52.254;4.490;2023-03-23T01:22:25;99936.75;;;12.75;100.00
31005;BME280;17676;52.254;4.490;2023-03-23T01:24:50;99934.88;;;12.75;100.00
31005;BME280;17676;52.254;4.490;2023-03-23T01:27:16;99932.03;;;12.70;100.00
31005;BME280;17676;52.254;4.490;2023-03-23T01:29:41;99924.50;;;12.72;100.00
31005;BME280;17676;52.254;4.490;2023-03-23T01:32:07;99926.59;;;12.70;100.00
31005;BME280;17676;52.254;4.490;2023-03-23T01:34:32;99932.56;;;12.67;100.00
31005;BME280;17676;52.254;4.490;2023-03-23T01:36:58;99933.03;;;12.64;100.00
31005;BME280;17676;52.254;4.490;2023-03-23T01:39:24;99929.31;;;12.70;100.00
31005;BME280;17676;52.254;4.490;2023-03-23T01:41:49;99927.91;;;12.68;100.00
31005;BME280;17676;52.254;4.490;2023-03-23T01:46:44;99922.84;;;12.71;100.00
31005;BME280;17676;52.254;4.490;2023-03-23T01:49:15;99910.31;;;12.70;100.00
31005;BME280;17676;52.254;4.490;2023-03-23T01:51:48;99916.25;;;12.67;100.00
31005;BME280;17676;52.254;4.490;2023-03-23T01:54:17;99903.97;;;12.65;100.00
31005;BME280;17676;52.254;4.490;2023-03-23T01:56:58;99904.25;;;12.63;100.00
31005;BME280;17676;52.254;4.490;2023-03-23T01:59:25;99900.22;;;12.66;100.00
31005;BME280;17676;52.254;4.490;2023-03-23T02:01:54;99897.25;;;12.67;100.00
31005;BME280;17676;52.254;4.490;2023-03-23T02:04:22;99903.97;;;12.65;100.00
31005;BME280;17676;52.254;4.490;2023-03-23T02:06:48;99901.13;;;12.71;100.00
31005;BME280;17676;52.254;4.490;2023-03-23T02:09:14;99894.53;;;12.67;100.00
31005;BME280;17676;52.254;4.490;2023-03-23T02:11:46;99890.16;;;12.66;100.00
31005;BME280;17676;52.254;4.490;2023-03-23T02:14:13;99891.47;;;12.64;100.00
31005;BME280;17676;52.254;4.490;2023-03-23T02:16:59;99905.88;;;12.64;100.00
31005;BME280;17676;52.254;4.490;2023-03-23T02:28:31;99914.09;;;12.69;100.00
31005;BME280;17676;52.254;4.490;2023-03-23T02:34:06;99899.47;;;12.70;100.00
31005;BME280;17676;52.254;4.490;2023-03-23T02:36:40;99884.41;;;12.63;100.00
31005;BME280;17676;52.254;4.490;2023-03-23T02:39:13;99901.25;;;12.65;100.00
31005;BME280;17676;52.254;4.490;2023-03-23T02:41:45;99905.88;;;12.64;100.00
31005;BME280;17676;52.254;4.490;2023-03-23T02:44:13;99906.44;;;12.66;100.00
31005;BME280;17676;52.254;4.490;2023-03-23T02:46:41;99899.38;;;12.65;100.00
31005;BME280;17676;52.254;4.490;2023-03-23T02:49:09;99922.72;;;12.66;100.00
31005;BME280;17676;52.254;4.490;2023-03-23T02:51:38;99910.16;;;12.60;100.00
31005;BME280;17676;52.254;4.490;2023-03-23T02:54:05;99907.09;;;12.57;100.00
31005;BME280;17676;52.254;4.490;2023-03-23T02:56:32;99910.78;;;12.51;100.00
31005;BME280;17676;52.254;4.490;2023-03-23T02:58:59;99894.81;;;12.54;100.00
31005;BME280;17676;52.254;4.490;2023-03-23T03:03:51;99902.41;;;12.52;100.00
31005;BME280;17676;52.254;4.490;2023-03-23T03:06:33;99890.72;;;12.52;100.00
31005;BME280;17676;52.254;4.490;2023-03-23T03:11:58;99917.22;;;12.33;100.00
31005;BME280;17676;52.254;4.490;2023-03-23T03:14:40;99926.13;;;12.17;100.00
31005;BME280;17676;52.254;4.490;2023-03-23T03:17:26;99933.88;;;11.97;100.00
31005;BME280;17676;52.254;4.490;2023-03-23T03:20:02;99940.25;;;11.91;100.00
31005;BME280;17676;52.254;4.490;2023-03-23T03:22:35;99934.63;;;11.70;100.00
31005;BME280;17676;52.254;4.490;2023-03-23T03:25:03;99939.91;;;11.76;100.00
31005;BME280;17676;52.254;4.490;2023-03-23T03:27:30;99940.16;;;11.75;100.00
31005;BME280;17676;52.254;4.490;2023-03-23T03:29:59;99932.84;;;11.75;100.00
31005;BME280;17676;52.254;4.490;2023-03-23T03:32:36;99932.72;;;11.70;100.00
31005;BME280;17676;52.254;4.490;2023-03-23T03:35:04;99942.38;;;11.66;100.00
31005;BME280;17676;52.254;4.490;2023-03-23T03:37:35;99934.25;;;11.66;100.00
31005;BME280;17676;52.254;4.490;2023-03-23T03:40:04;99940.28;;;11.68;100.00
31005;BME280;17676;52.254;4.490;2023-03-23T03:42:37;99939.22;;;11.69;100.00
31005;BME280;17676;52.254;4.490;2023-03-23T03:45:03;99939.09;;;11.64;100.00
31005;BME280;17676;52.254;4.490;2023-03-23T03:47:28;99944.16;;;11.72;100.00
31005;BME280;17676;52.254;4.490;2023-03-23T03:49:54;99952.88;;;11.74;100.00
31005;BME280;17676;52.254;4.490;2023-03-23T03:52:19;99947.34;;;11.69;100.00
31005;BME280;17676;52.254;4.490;2023-03-23T03:54:45;99952.28;;;11.72;100.00
31005;BME280;17676;52.254;4.490;2023-03-23T03:57:11;99945.00;;;11.73;100.00
31005;BME280;17676;52.254;4.490;2023-03-23T03:59:37;99938.75;;;11.72;100.00
31005;BME280;17676;52.254;4.490;2023-03-23T04:02:02;99956.19;;;11.76;100.00
31005;BME280;17676;52.254;4.490;2023-03-23T04:04:29;99950.88;;;11.81;100.00
31005;BME280;17676;52.254;4.490;2023-03-23T04:06:54;99961.84;;;11.75;100.00
31005;BME280;17676;52.254;4.490;2023-03-23T04:09:20;99965.03;;;11.60;100.00
31005;BME280;17676;52.254;4.490;2023-03-23T04:11:46;99981.88;;;11.62;100.00
31005;BME280;17676;52.254;4.490;2023-03-23T04:14:12;99963.72;;;11.51;100.00
31005;BME280;17676;52.254;4.490;2023-03-23T04:16:38;99981.00;;;11.39;100.00
31005;BME280;17676;52.254;4.490;2023-03-23T04:19:03;99997.28;;;11.39;100.00
31005;BME280;17676;52.254;4.490;2023-03-23T04:21:29;99993.59;;;11.33;100.00
31005;BME280;17676;52.254;4.490;2023-03-23T04:23:56;100004.94;;;11.30;100.00
31005;BME280;17676;52.254;4.490;2023-03-23T04:26:27;100006.31;;;11.21;100.00
31005;BME280;17676;52.254;4.490;2023-03-23T04:28:55;100006.06;;;11.11;100.00
31005;BME280;17676;52.254;4.490;2023-03-23T04:31:21;100002.28;;;11.12;100.00
31005;BME280;17676;52.254;4.490;2023-03-23T04:33:50;100015.00;;;11.12;100.00
31005;BME280;17676;52.254;4.490;2023-03-23T04:36:17;100042.78;;;11.07;100.00
31005;BME280;17676;52.254;4.490;2023-03-23T04:38:43;100023.38;;;11.10;100.00
31005;BME280;17676;52.254;4.490;2023-03-23T04:41:09;100035.72;;;11.06;100.00
31005;BME280;17676;52.254;4.490;2023-03-23T04:43:35;100026.88;;;10.99;100.00
31005;BME280;17676;52.254;4.490;2023-03-23T04:46:07;100020.41;;;11.00;100.00
31005;BME280;17676;52.254;4.490;2023-03-23T04:48:36;100031.56;;;11.04;100.00
31005;BME280;17676;52.254;4.490;2023-03-23T04:51:03;100032.88;;;11.01;100.00
31005;BME280;17676;52.254;4.490;2023-03-23T04:53:32;100047.91;;;10.97;100.00
31005;BME280;17676;52.254;4.490;2023-03-23T04:55:59;100026.16;;;11.04;100.00
31005;BME280;17676;52.254;4.490;2023-03-23T04:58:26;100027.00;;;11.04;100.00
31005;BME280;17676;52.254;4.490;2023-03-23T05:00:53;100032.28;;;10.99;100.00
31005;BME280;17676;52.254;4.490;2023-03-23T05:03:19;100042.06;;;11.00;100.00
31005;BME280;17676;52.254;4.490;2023-03-23T05:05:45;100031.34;;;11.05;100.00
31005;BME280;17676;52.254;4.490;2023-03-23T05:08:18;100042.19;;;11.05;100.00
31005;BME280;17676;52.254;4.490;2023-03-23T05:10:59;100046.06;;;11.09;100.00
31005;BME280;17676;52.254;4.490;2023-03-23T05:13:25;100046.06;;;11.09;100.00
31005;BME280;17676;52.254;4.490;2023-03-23T05:15:52;100055.72;;;11.05;100.00
31005;BME280;17676;52.254;4.490;2023-03-23T05:18:17;100049.94;;;11.02;100.00
31005;BME280;17676;52.254;4.490;2023-03-23T05:20:43;100047.91;;;10.97;100.00
31005;BME280;17676;52.254;4.490;2023-03-23T05:23:11;100037.56;;;10.94;100.00
31005;BME280;17676;52.254;4.490;2023-03-23T05:25:38;100038.47;;;10.88;100.00
31005;BME280;17676;52.254;4.490;2023-03-23T05:28:09;100042.56;;;10.79;100.00
31005;BME280;17676;52.254;4.490;2023-03-23T05:30:36;100049.94;;;10.72;100.00
31005;BME280;17676;52.254;4.490;2023-03-23T05:33:02;100042.06;;;10.71;100.00
31005;BME280;17676;52.254;4.490;2023-03-23T05:35:30;100050.38;;;10.69;100.00
31005;BME280;17676;52.254;4.490;2023-03-23T05:37:55;100052.06;;;10.70;100.00
31005;BME280;17676;52.254;4.490;2023-03-23T05:40:22;100050.03;;;10.66;100.00
31005;BME280;17676;52.254;4.490;2023-03-23T05:42:51;100052.88;;;10.71;100.00
31005;BME280;17676;52.254;4.490;2023-03-23T05:45:17;100060.31;;;10.75;100.00
31005;BME280;17676;52.254;4.490;2023-03-23T05:47:44;100069.94;;;10.71;100.00
31005;BME280;17676;52.254;4.490;2023-03-23T05:50:11;100060.41;;;10.69;100.00
31005;BME280;17676;52.254;4.490;2023-03-23T05:52:38;100070.09;;;10.76;100.00
31005;BME280;17676;52.254;4.490;2023-03-23T05:55:05;100058.19;;;10.77;100.00
31005;BME280;17676;52.254;4.490;2023-03-23T05:57:31;100061.50;;;10.79;100.00
31005;BME280;17676;52.254;4.490;2023-03-23T05:59:57;100070.00;;;10.83;100.00
31005;BME280;17676;52.254;4.490;2023-03-23T06:02:24;100071.06;;;10.82;100.00
31005;BME280;17676;52.254;4.490;2023-03-23T06:04:50;100065.09;;;10.91;100.00
31005;BME280;17676;52.254;4.490;2023-03-23T06:07:23;100070.88;;;10.95;100.00
31005;BME280;17676;52.254;4.490;2023-03-23T06:09:48;100091.84;;;10.99;100.00
31005;BME280;17676;52.254;4.490;2023-03-23T06:12:14;100072.44;;;11.02;100.00
31005;BME280;17676;52.254;4.490;2023-03-23T06:14:41;100084.09;;;11.03;100.00
31005;BME280;17676;52.254;4.490;2023-03-23T06:17:07;100072.81;;;11.06;100.00
31005;BME280;17676;52.254;4.490;2023-03-23T06:19:33;100084.47;;;11.06;100.00
31005;BME280;17676;52.254;4.490;2023-03-23T06:22:00;100088.22;;;11.05;100.00
31005;BME280;17676;52.254;4.490;2023-03-23T06:24:27;100079.38;;;10.98;100.00
31005;BME280;17676;52.254;4.490;2023-03-23T06:26:53;100078.31;;;10.99;100.00
31005;BME280;17676;52.254;4.490;2023-03-23T06:29:19;100091.72;;;10.94;100.00
31005;BME280;17676;52.254;4.490;2023-03-23T06:31:48;100095.69;;;10.92;100.00
31005;BME280;17676;52.254;4.490;2023-03-23T06:34:16;100102.53;;;10.94;100.00
31005;BME280;17676;52.254;4.490;2023-03-23T06:36:42;100086.31;;;10.94;100.00
31005;BME280;17676;52.254;4.490;2023-03-23T06:39:10;100102.53;;;10.94;100.00
31005;BME280;17676;52.254;4.490;2023-03-23T06:41:36;100099.13;;;10.99;100.00
31005;BME280;17676;52.254;4.490;2023-03-23T06:44:02;100096.50;;;11.10;100.00
31005;BME280;17676;52.254;4.490;2023-03-23T06:46:28;100115.69;;;11.09;100.00
31005;BME280;17676;52.254;4.490;2023-03-23T06:48:54;100124.03;;;11.07;100.00
31005;BME280;17676;52.254;4.490;2023-03-23T06:51:21;100115.28;;;11.05;100.00
31005;BME280;17676;52.254;4.490;2023-03-23T06:53:47;100114.25;;;11.06;100.00
31005;BME280;17676;52.254;4.490;2023-03-23T06:56:13;100119.91;;;11.05;100.00
31005;BME280;17676;52.254;4.490;2023-03-23T06:58:39;100107.69;;;11.14;100.00
31005;BME280;17676;52.254;4.490;2023-03-23T07:01:08;100113.31;;;11.12;100.00
31005;BME280;17676;52.254;4.490;2023-03-23T07:03:35;100104.00;;;11.08;100.00
31005;BME280;17676;52.254;4.490;2023-03-23T07:06:02;100121.91;;;11.09;100.00
31005;BME280;17676;52.254;4.490;2023-03-23T07:08:28;100110.75;;;11.17;100.00
31005;BME280;17676;52.254;4.490;2023-03-23T07:10:54;100101.31;;;11.20;100.00
31005;BME280;17676;52.254;4.490;2023-03-23T07:13:21;100116.31;;;11.22;100.00
31005;BME280;17676;52.254;4.490;2023-03-23T07:15:48;100110.06;;;11.22;100.00
31005;BME280;17676;52.254;4.490;2023-03-23T07:18:15;100106.75;;;11.20;100.00
31005;BME280;17676;52.254;4.490;2023-03-23T07:20:41;100111.81;;;11.16;100.00
31005;BME280;17676;52.254;4.490;2023-03-23T07:23:10;100111.22;;;11.14;100.00
31005;BME280;17676;52.254;4.490;2023-03-23T07:25:36;100108.97;;;11.11;100.00
31005;BME280;17676;52.254;4.490;2023-03-23T07:28:02;100113.63;;;11.04;100.00
31005;BME280;17676;52.254;4.490;2023-03-23T07:30:29;100111.06;;;11.09;100.00
31005;BME280;17676;52.254;4.490;2023-03-23T07:32:56;100124.28;;;11.17;100.00
31005;BME280;17676;52.254;4.490;2023-03-23T07:35:22;100118.41;;;11.20;100.00
31005;BME280;17676;52.254;4.490;2023-03-23T07:37:49;100121.16;;;11.32;100.00
31005;BME280;17676;52.254;4.490;2023-03-23T07:40:16;100114.47;;;11.34;100.00
31005;BME280;17676;52.254;4.490;2023-03-23T07:42:46;100115.19;;;11.41;100.00
31005;BME280;17676;52.254;4.490;2023-03-23T07:45:20;100121.22;;;11.43;100.00
31005;BME280;17676;52.254;4.490;2023-03-23T07:47:48;100118.28;;;11.56;100.00
31005;BME280;17676;52.254;4.490;2023-03-23T07:50:13;100111.47;;;11.54;100.00
31005;BME280;17676;52.254;4.490;2023-03-23T07:52:40;100127.41;;;11.62;100.00
31005;BME280;17676;52.254;4.490;2023-03-23T07:55:09;100123.19;;;11.77;100.00
31005;BME280;17676;52.254;4.490;2023-03-23T07:57:36;100139.00;;;11.80;100.00
31005;BME280;17676;52.254;4.490;2023-03-23T08:00:03;100126.50;;;11.79;100.00
31005;BME280;17676;52.254;4.490;2023-03-23T08:02:37;100128.59;;;11.77;100.00
31005;BME280;17676;52.254;4.490;2023-03-23T08:05:07;100123.56;;;11.92;100.00
31005;BME280;17676;52.254;4.490;2023-03-23T08:07:34;100138.91;;;12.10;100.00
31005;BME280;17676;52.254;4.490;2023-03-23T08:10:04;100134.41;;;12.38;100.00
31005;BME280;17676;52.254;4.490;2023-03-23T08:12:35;100127.28;;;13.23;100.00
31005;BME280;17676;52.254;4.490;2023-03-23T08:15:00;100133.28;;;14.02;100.00
31005;BME280;17676;52.254;4.490;2023-03-23T08:17:27;100132.13;;;14.31;100.00
31005;BME280;17676;52.254;4.490;2023-03-23T08:19:53;100136.56;;;14.75;100.00
31005;BME280;17676;52.254;4.490;2023-03-23T08:22:19;100124.72;;;14.65;100.00
31005;BME280;17676;52.254;4.490;2023-03-23T08:24:44;100140.53;;;14.46;100.00
31005;BME280;17676;52.254;4.490;2023-03-23T08:27:16;100120.81;;;14.77;100.00
31005;BME280;17676;52.254;4.490;2023-03-23T08:29:44;100123.44;;;14.72;100.00
31005;BME280;17676;52.254;4.490;2023-03-23T08:32:11;100112.44;;;15.06;100.00
31005;BME280;17676;52.254;4.490;2023-03-23T08:34:37;100104.31;;;15.59;100.00
31005;BME280;17676;52.254;4.490;2023-03-23T08:37:03;100106.66;;;15.82;100.00
31005;BME280;17676;52.254;4.490;2023-03-23T08:39:30;100108.22;;;15.73;100.00
31005;BME280;17676;52.254;4.490;2023-03-23T08:41:59;100106.75;;;15.92;100.00
31005;BME280;17676;52.254;4.490;2023-03-23T08:44:36;100119.19;;;16.46;100.00
31005;BME280;17676;52.254;4.490;2023-03-23T08:47:02;100113.19;;;15.76;100.00
31005;BME280;17676;52.254;4.490;2023-03-23T08:49:31;100117.91;;;15.06;100.00
31005;BME280;17676;52.254;4.490;2023-03-23T08:51:58;100118.13;;;15.79;100.00
31005;BME280;17676;52.254;4.490;2023-03-23T08:54:25;100127.94;;;15.80;100.00
31005;BME280;17676;52.254;4.490;2023-03-23T08:56:54;100116.38;;;15.99;100.00
31005;BME280;17676;52.254;4.490;2023-03-23T08:59:20;100124.03;;;16.39;100.00
31005;BME280;17676;52.254;4.490;2023-03-23T09:01:45;100129.31;;;16.50;100.00
31005;BME280;17676;52.254;4.490;2023-03-23T09:04:10;100132.53;;;16.94;100.00
31005;BME280;17676;52.254;4.490;2023-03-23T09:06:36;100114.03;;;16.49;100.00
31005;BME280;17676;52.254;4.490;2023-03-23T09:09:03;100121.72;;;16.57;100.00
31005;BME280;17676;52.254;4.490;2023-03-23T09:11:36;100122.25;;;17.21;100.00
31005;BME280;17676;52.254;4.490;2023-03-23T09:14:02;100120.47;;;16.80;100.00
31005;BME280;17676;52.254;4.490;2023-03-23T09:16:28;100102.72;;;16.92;100.00
31005;BME280;17676;52.254;4.490;2023-03-23T09:18:58;100116.66;;;16.91;100.00
31005;BME280;17676;52.254;4.490;2023-03-23T09:21:25;100123.34;;;16.22;100.00
31005;BME280;17676;52.254;4.490;2023-03-23T09:23:54;100112.78;;;16.72;100.00
31005;BME280;17676;52.254;4.490;2023-03-23T09:26:24;100113.31;;;16.74;100.00
31005;BME280;17676;52.254;4.490;2023-03-23T09:28:52;100104.25;;;16.22;100.00
31005;BME280;17676;52.254;4.490;2023-03-23T09:31:18;100103.97;;;16.60;100.00
31005;BME280;17676;52.254;4.490;2023-03-23T09:33:46;100115.28;;;16.37;100.00
31005;BME280;17676;52.254;4.490;2023-03-23T09:36:11;100117.97;;;16.32;100.00
31005;BME280;17676;52.254;4.490;2023-03-23T09:38:39;100121.66;;;16.11;100.00
31005;BME280;17676;52.254;4.490;2023-03-23T09:46:58;100141.88;;;16.46;100.00
31005;BME280;17676;52.254;4.490;2023-03-23T09:49:33;100156.94;;;17.05;100.00
31005;BME280;17676;52.254;4.490;2023-03-23T09:52:04;100155.94;;;16.33;100.00
31005;BME280;17676;52.254;4.490;2023-03-23T09:54:39;100153.88;;;15.82;100.00
31005;BME280;17676;52.254;4.490;2023-03-23T09:57:33;100145.69;;;16.14;100.00
31005;BME280;17676;52.254;4.490;2023-03-23T10:00:11;100157.78;;;16.23;100.00
31005;BME280;17676;52.254;4.490;2023-03-23T10:02:59;100160.25;;;16.61;100.00
31005;BME280;17676;52.254;4.490;2023-03-23T10:05:35;100163.75;;;16.56;100.00
31005;BME280;17676;52.254;4.490;2023-03-23T10:08:08;100159.34;;;16.14;100.00
31005;BME280;17676;52.254;4.490;2023-03-23T10:11:07;100156.16;;;16.63;100.00
31005;BME280;17676;52.254;4.490;2023-03-23T10:16:06;100150.63;;;16.17;100.00
31005;BME280;17676;52.254;4.490;2023-03-23T10:18:41;100165.44;;;15.63;100.00
31005;BME280;17676;52.254;4.490;2023-03-23T10:21:13;100156.31;;;15.79;100.00
31005;BME280;17676;52.254;4.490;2023-03-23T10:29:09;100196.25;;;15.63;100.00
31005;BME280;17676;52.254;4.490;2023-03-23T10:31:41;100177.16;;;15.37;100.00
31005;BME280;17676;52.254;4.490;2023-03-23T10:34:17;100188.44;;;15.72;100.00
31005;BME280;17676;52.254;4.490;2023-03-23T10:37:05;100172.81;;;16.62;100.00
31005;BME280;17676;52.254;4.490;2023-03-23T10:39:51;100169.34;;;16.35;100.00
31005;BME280;17676;52.254;4.490;2023-03-23T10:44:50;100187.69;;;16.08;100.00
31005;BME280;17676;52.254;4.490;2023-03-23T10:47:16;100185.50;;;15.52;100.00
31005;BME280;17676;52.254;4.490;2023-03-23T10:49:47;100179.00;;;15.58;100.00
31005;BME280;17676;52.254;4.490;2023-03-23T10:52:33;100178.06;;;16.32;100.00
31005;BME280;17676;52.254;4.490;2023-03-23T10:55:20;100180.78;;;16.32;100.00
31005;BME280;17676;52.254;4.490;2023-03-23T10:58:00;100190.56;;;16.23;100.00
31005;BME280;17676;52.254;4.490;2023-03-23T11:00:27;100189.84;;;16.74;100.00
31005;BME280;17676;52.254;4.490;2023-03-23T11:03:06;100196.88;;;16.60;100.00
31005;BME280;17676;52.254;4.490;2023-03-23T11:05:37;100176.84;;;16.18;100.00
31005;BME280;17676;52.254;4.490;2023-03-23T11:08:11;100185.69;;;16.30;100.00
31005;BME280;17676;52.254;4.490;2023-03-23T11:10:41;100192.50;;;16.59;100.00
31005;BME280;17676;52.254;4.490;2023-03-23T11:13:17;100195.66;;;16.46;100.00
31005;BME280;17676;52.254;4.490;2023-03-23T11:15:47;100185.34;;;15.90;100.00
31005;BME280;17676;52.254;4.490;2023-03-23T11:18:19;100183.00;;;15.29;100.00
31005;BME280;17676;52.254;4.490;2023-03-23T11:20:52;100191.72;;;15.04;100.00
31005;BME280;17676;52.254;4.490;2023-03-23T11:23:26;100199.16;;;14.70;100.00
31005;BME280;17676;52.254;4.490;2023-03-23T11:31:23;100196.22;;;14.94;100.00
31005;BME280;17676;52.254;4.490;2023-03-23T11:33:53;100198.38;;;14.92;100.00
31005;BME280;17676;52.254;4.490;2023-03-23T11:36:27;100195.13;;;14.95;100.00
31005;BME280;17676;52.254;4.490;2023-03-23T11:38:54;100185.44;;;14.82;100.00
31005;BME280;17676;52.254;4.490;2023-03-23T11:41:23;100194.69;;;15.03;100.00
31005;BME280;17676;52.254;4.490;2023-03-23T11:43:51;100186.84;;;15.28;100.00
31005;BME280;17676;52.254;4.490;2023-03-23T11:49:01;100193.66;;;16.05;100.00
31005;BME280;17676;52.254;4.490;2023-03-23T11:51:37;100189.53;;;15.71;100.00
31005;BME280;17676;52.254;4.490;2023-03-23T11:54:16;100195.38;;;15.58;100.00
31005;BME280;17676;52.254;4.490;2023-03-23T11:56:45;100202.16;;;15.55;100.00
31005;BME280;17676;52.254;4.490;2023-03-23T11:59:34;100189.28;;;14.86;100.00
31005;BME280;17676;52.254;4.490;2023-03-23T12:08:29;100215.25;;;15.32;100.00
31005;BME280;17676;52.254;4.490;2023-03-23T12:13:52;100193.47;;;15.58;100.00
31005;BME280;17676;52.254;4.490;2023-03-23T12:16:53;100181.97;;;15.30;100.00
31005;BME280;17676;52.254;4.490;2023-03-23T12:22:23;100190.59;;;15.70;100.00
31005;BME280;17676;52.254;4.490;2023-03-23T12:30:55;100186.72;;;16.19;100.00
31005;BME280;17676;52.254;4.490;2023-03-23T12:33:37;100173.28;;;15.86;100.00
31005;BME280;17676;52.254;4.490;2023-03-23T12:38:51;100179.84;;;15.85;100.00
31005;BME280;17676;52.254;4.490;2023-03-23T12:44:12;100193.50;;;15.37;100.00
31005;BME280;17676;52.254;4.490;2023-03-23T12:46:54;100190.16;;;15.30;100.00
31005;BME280;17676;52.254;4.490;2023-03-23T12:49:40;100193.06;;;15.45;100.00
31005;BME280;17676;52.254;4.490;2023-03-23T12:52:43;100189.06;;;15.52;100.00
31005;BME280;17676;52.254;4.490;2023-03-23T12:55:23;100193.31;;;15.22;100.00
31005;BME280;17676;52.254;4.490;2023-03-23T12:58:08;100200.03;;;15.36;100.00
31005;BME280;17676;52.254;4.490;2023-03-23T13:03:28;100209.41;;;15.02;100.00
31005;BME280;17676;52.254;4.490;2023-03-23T13:06:17;100227.16;;;15.04;100.00
31005;BME280;17676;52.254;4.490;2023-03-23T13:09:03;100207.69;;;14.96;100.00
31005;BME280;17676;52.254;4.490;2023-03-23T13:11:38;100227.34;;;14.98;100.00
31005;BME280;17676;52.254;4.490;2023-03-23T13:17:41;100224.34;;;14.99;100.00
31005;BME280;17676;52.254;4.490;2023-03-23T13:23:19;100217.47;;;15.13;100.00
31005;BME280;17676;52.254;4.490;2023-03-23T13:25:50;100224.34;;;15.21;100.00
31005;BME280;17676;52.254;4.490;2023-03-23T13:28:28;100221.53;;;15.32;100.00
31005;BME280;17676;52.254;4.490;2023-03-23T13:31:19;100217.28;;;15.20;100.00
31005;BME280;17676;52.254;4.490;2023-03-23T13:33:57;100211.75;;;15.15;100.00
31005;BME280;17676;52.254;4.490;2023-03-23T13:37:04;100209.34;;;15.18;100.00
31005;BME280;17676;52.254;4.490;2023-03-23T13:43:24;100214.59;;;15.25;100.00
31005;BME280;17676;52.254;4.490;2023-03-23T13:46:07;100209.31;;;15.35;100.00
31005;BME280;17676;52.254;4.490;2023-03-23T13:48:47;100215.63;;;15.19;100.00
31005;BME280;17676;52.254;4.490;2023-03-23T13:51:35;100189.91;;;15.10;100.00
31005;BME280;17676;52.254;4.490;2023-03-23T13:59:28;100197.84;;;14.56;100.00
31005;BME280;17676;52.254;4.490;2023-03-23T14:01:57;100203.88;;;14.58;100.00
31005;BME280;17676;52.254;4.490;2023-03-23T14:04:30;100194.31;;;14.56;100.00
31005;BME280;17676;52.254;4.490;2023-03-23T14:07:15;100195.28;;;14.66;100.00
31005;BME280;17676;52.254;4.490;2023-03-23T14:10:14;100197.16;;;14.82;100.00
31005;BME280;17676;52.254;4.490;2023-03-23T14:12:46;100199.72;;;14.72;100.00
31005;BME280;17676;52.254;4.490;2023-03-23T14:15:13;100193.47;;;14.72;100.00
31005;BME280;17676;52.254;4.490;2023-03-23T14:17:43;100184.28;;;14.78;100.00
31005;BME280;17676;52.254;4.490;2023-03-23T14:20:26;100175.41;;;14.88;100.00
31005;BME280;17676;52.254;4.490;2023-03-23T14:23:19;100179.00;;;15.10;100.00
31005;BME280;17676;52.254;4.490;2023-03-23T14:25:54;100168.69;;;15.17;100.00